sensor_id;sensor_type;location;lat;lon;timestamp;temperature;humidity
46217;DHT22;47258;59.424;13.482;2023-08-01T02:29:32;12.10;99.90
46217;DHT22;47258;59.424;13.482;2023-08-01T02:31:59;12.00;99.90
46217;DHT22;47258;59.424;13.482;2023-08-01T02:34:27;11.80;99.90
46217;DHT22;47258;59.424;13.482;2023-08-01T02:36:54;11.70;99.90
46217;DHT22;47258;59.424;13.482;2023-08-01T02:39:21;11.60;99.90
46217;DHT22;47258;59.424;13.482;2023-08-01T02:41:48;11.50;99.90
46217;DHT22;47258;59.424;13.482;2023-08-01T02:44:15;11.50;99.90
46217;DHT22;47258;59.424;13.482;2023-08-01T02:46:44;11.60;99.90
46217;DHT22;47258;59.424;13.482;2023-08-01T02:49:11;11.50;99.90
46217;DHT22;47258;59.424;13.482;2023-08-01T02:51:38;11.60;99.90
46217;DHT22;47258;59.424;13.482;2023-08-01T02:54:05;11.60;99.90
46217;DHT22;47258;59.424;13.482;2023-08-01T02:56:32;11.50;99.90
46217;DHT22;47258;59.424;13.482;2023-08-01T02:58:59;11.50;99.90
46217;DHT22;47258;59.424;13.482;2023-08-01T03:01:26;11.60;99.90
46217;DHT22;47258;59.424;13.482;2023-08-01T03:03:54;11.60;99.90
46217;DHT22;47258;59.424;13.482;2023-08-01T03:06:22;11.50;99.90
46217;DHT22;47258;59.424;13.482;2023-08-01T03:08:49;11.40;99.90
46217;DHT22;47258;59.424;13.482;2023-08-01T03:11:16;11.40;99.90
46217;DHT22;47258;59.424;13.482;2023-08-01T03:13:43;11.40;99.90
46217;DHT22;47258;59.424;13.482;2023-08-01T03:16:10;11.40;99.90
46217;DHT22;47258;59.424;13.482;2023-08-01T03:18:37;11.50;99.90
46217;DHT22;47258;59.424;13.482;2023-08-01T03:21:06;11.60;99.90
46217;DHT22;47258;59.424;13.482;2023-08-01T03:23:33;11.60;99.90
46217;DHT22;47258;59.424;13.482;2023-08-01T03:26:00;11.60;99.90
46217;DHT22;47258;59.424;13.482;2023-08-01T03:28:28;11.60;99.90
46217;DHT22;47258;59.424;13.482;2023-08-01T03:30:55;11.70;99.90
46217;DHT22;47258;59.424;13.482;2023-08-01T03:33:22;11.70;99.90
46217;DHT22;47258;59.424;13.482;2023-08-01T03:35:49;11.80;99.90
46217;DHT22;47258;59.424;13.482;2023-08-01T03:38:17;11.90;99.90
46217;DHT22;47258;59.424;13.482;2023-08-01T03:40:44;12.00;99.90
46217;DHT22;47258;59.424;13.482;2023-08-01T03:43:12;12.00;99.90
46217;DHT22;47258;59.424;13.482;2023-08-01T03:45:39;12.10;99.90
46217;DHT22;47258;59.424;13.482;2023-08-01T03:48:06;12.10;99.90
46217;DHT22;47258;59.424;13.482;2023-08-01T03:50:33;12.20;99.90
46217;DHT22;47258;59.424;13.482;2023-08-01T03:53:01;12.20;99.90
46217;DHT22;47258;59.424;13.482;2023-08-01T03:55:30;12.20;99.90
46217;DHT22;47258;59.424;13.482;2023-08-01T03:57:57;12.20;99.90
46217;DHT22;47258;59.424;13.482;2023-08-01T04:00:24;12.20;99.90
46217;DHT22;47258;59.424;13.482;2023-08-01T04:02:51;12.20;99.90
46217;DHT22;47258;59.424;13.482;2023-08-01T04:05:18;12.20;99.90
46217;DHT22;47258;59.424;13.482;2023-08-01T04:07:45;12.20;99.90
46217;DHT22;47258;59.424;13.482;2023-08-01T04:10:12;12.20;99.90
46217;DHT22;47258;59.424;13.482;2023-08-01T04:12:41;12.20;99.90
46217;DHT22;47258;59.424;13.482;2023-08-01T04:15:09;12.20;99.90
46217;DHT22;47258;59.424;13.482;2023-08-01T04:17:36;12.20;99.90
46217;DHT22;47258;59.424;13.482;2023-08-01T04:20:04;12.20;99.90
46217;DHT22;47258;59.424;13.482;2023-08-01T04:22:31;12.20;99.90
46217;DHT22;47258;59.424;13.482;2023-08-01T04:24:58;12.20;99.90
46217;DHT22;47258;59.424;13.482;2023-08-01T04:27:25;12.20;99.90
46217;DHT22;47258;59.424;13.482;2023-08-01T04:29:55;12.20;99.90
46217;DHT22;47258;59.424;13.482;2023-08-01T04:32:22;12.30;99.90
46217;DHT22;47258;59.424;13.482;2023-08-01T04:34:49;12.30;99.90
46217;DHT22;47258;59.424;13.482;2023-08-01T04:37:16;12.30;99.90
46217;DHT22;47258;59.424;13.482;2023-08-01T04:39:46;12.30;99.90
46217;DHT22;47258;59.424;13.482;2023-08-01T04:42:13;12.30;99.90
46217;DHT22;47258;59.424;13.482;2023-08-01T04:44:40;12.40;99.90
46217;DHT22;47258;59.424;13.482;2023-08-01T04:47:09;12.40;99.90
46217;DHT22;47258;59.424;13.482;2023-08-01T04:49:36;12.40;99.90
46217;DHT22;47258;59.424;13.482;2023-08-01T04:52:04;12.50;99.90
46217;DHT22;47258;59.424;13.482;2023-08-01T04:54:31;12.50;99.90
46217;DHT22;47258;59.424;13.482;2023-08-01T04:56:58;12.50;99.90
46217;DHT22;47258;59.424;13.482;2023-08-01T04:59:25;12.60;99.90
46217;DHT22;47258;59.424;13.482;2023-08-01T05:01:52;12.60;99.90
46217;DHT22;47258;59.424;13.482;2023-08-01T05:04:21;12.60;99.90
46217;DHT22;47258;59.424;13.482;2023-08-01T05:06:48;12.80;99.90
46217;DHT22;47258;59.424;13.482;2023-08-01T05:09:15;12.80;99.90
46217;DHT22;47258;59.424;13.482;2023-08-01T05:11:42;12.90;99.90
46217;DHT22;47258;59.424;13.482;2023-08-01T05:14:09;13.00;99.90
46217;DHT22;47258;59.424;13.482;2023-08-01T05:16:36;13.00;99.90
46217;DHT22;47258;59.424;13.482;2023-08-01T05:19:03;13.10;99.90
46217;DHT22;47258;59.424;13.482;2023-08-01T05:21:31;13.20;99.90
46217;DHT22;47258;59.424;13.482;2023-08-01T05:23:58;13.30;99.90
46217;DHT22;47258;59.424;13.482;2023-08-01T05:26:25;13.40;99.90
46217;DHT22;47258;59.424;13.482;2023-08-01T05:28:52;13.40;99.90
46217;DHT22;47258;59.424;13.482;2023-08-01T05:31:19;13.50;99.90
46217;DHT22;47258;59.424;13.482;2023-08-01T05:33:46;13.60;99.90
46217;DHT22;47258;59.424;13.482;2023-08-01T05:36:13;13.70;99.90
46217;DHT22;47258;59.424;13.482;2023-08-01T05:38:42;13.80;99.90
46217;DHT22;47258;59.424;13.482;2023-08-01T05:41:09;13.90;99.90
46217;DHT22;47258;59.424;13.482;2023-08-01T05:43:36;14.00;99.90
46217;DHT22;47258;59.424;13.482;2023-08-01T05:46:03;14.10;99.90
46217;DHT22;47258;59.424;13.482;2023-08-01T05:48:30;14.20;99.90
46217;DHT22;47258;59.424;13.482;2023-08-01T05:50:57;14.30;99.90
46217;DHT22;47258;59.424;13.482;2023-08-01T05:53:24;14.40;99.90
46217;DHT22;47258;59.424;13.482;2023-08-01T05:55:54;14.50;99.90
46217;DHT22;47258;59.424;13.482;2023-08-01T05:58:21;14.60;99.90
46217;DHT22;47258;59.424;13.482;2023-08-01T06:00:48;14.70;99.90
46217;DHT22;47258;59.424;13.482;2023-08-01T06:03:15;14.80;99.90
46217;DHT22;47258;59.424;13.482;2023-08-01T06:05:43;14.90;99.90
46217;DHT22;47258;59.424;13.482;2023-08-01T06:08:10;15.00;99.90
46217;DHT22;47258;59.424;13.482;2023-08-01T06:10:39;15.10;99.90
46217;DHT22;47258;59.424;13.482;2023-08-01T06:13:07;15.20;99.90
46217;DHT22;47258;59.424;13.482;2023-08-01T06:15:34;15.30;99.90
46217;DHT22;47258;59.424;13.482;2023-08-01T06:18:02;15.40;99.90
46217;DHT22;47258;59.424;13.482;2023-08-01T06:20:29;15.60;99.90
46217;DHT22;47258;59.424;13.482;2023-08-01T06:22:56;15.70;99.90
46217;DHT22;47258;59.424;13.482;2023-08-01T06:25:23;15.70;99.90
46217;DHT22;47258;59.424;13.482;2023-08-01T06:27:50;15.80;99.90
46217;DHT22;47258;59.424;13.482;2023-08-01T06:30:19;15.90;99.90
46217;DHT22;47258;59.424;13.482;2023-08-01T06:32:46;16.00;99.90
46217;DHT22;47258;59.424;13.482;2023-08-01T06:35:13;16.10;99.90
46217;DHT22;47258;59.424;13.482;2023-08-01T06:37:40;16.20;99.90
46217;DHT22;47258;59.424;13.482;2023-08-01T06:40:08;16.40;99.90
46217;DHT22;47258;59.424;13.482;2023-08-01T06:42:35;16.50;99.90
46217;DHT22;47258;59.424;13.482;2023-08-01T06:45:02;16.60;99.90
46217;DHT22;47258;59.424;13.482;2023-08-01T06:47:30;16.70;99.90
46217;DHT22;47258;59.424;13.482;2023-08-01T06:49:57;16.70;99.90
46217;DHT22;47258;59.424;13.482;2023-08-01T06:52:24;16.80;99.90
46217;DHT22;47258;59.424;13.482;2023-08-01T06:54:51;16.90;99.90
46217;DHT22;47258;59.424;13.482;2023-08-01T06:57:18;16.90;99.90
46217;DHT22;47258;59.424;13.482;2023-08-01T06:59:46;17.00;99.90
46217;DHT22;47258;59.424;13.482;2023-08-01T07:02:13;17.00;99.90
46217;DHT22;47258;59.424;13.482;2023-08-01T07:04:42;17.10;99.90
46217;DHT22;47258;59.424;13.482;2023-08-01T07:07:09;17.10;99.90
46217;DHT22;47258;59.424;13.482;2023-08-01T07:09:37;17.20;99.90
46217;DHT22;47258;59.424;13.482;2023-08-01T07:12:05;17.30;99.90
46217;DHT22;47258;59.424;13.482;2023-08-01T07:14:32;17.40;99.90
46217;DHT22;47258;59.424;13.482;2023-08-01T07:16:59;17.50;99.90
46217;DHT22;47258;59.424;13.482;2023-08-01T07:19:26;17.60;99.90
46217;DHT22;47258;59.424;13.482;2023-08-01T07:21:54;17.70;99.90
46217;DHT22;47258;59.424;13.482;2023-08-01T07:24:21;17.80;99.90
46217;DHT22;47258;59.424;13.482;2023-08-01T07:26:48;17.90;99.90
46217;DHT22;47258;59.424;13.482;2023-08-01T07:29:15;17.90;99.90
46217;DHT22;47258;59.424;13.482;2023-08-01T07:31:43;18.10;99.90
46217;DHT22;47258;59.424;13.482;2023-08-01T07:34:10;18.20;99.90
46217;DHT22;47258;59.424;13.482;2023-08-01T07:36:37;18.30;99.90
46217;DHT22;47258;59.424;13.482;2023-08-01T07:39:05;18.30;99.90
46217;DHT22;47258;59.424;13.482;2023-08-01T07:41:32;18.30;99.90
46217;DHT22;47258;59.424;13.482;2023-08-01T07:44:01;18.40;99.90
46217;DHT22;47258;59.424;13.482;2023-08-01T07:46:29;18.40;99.90
46217;DHT22;47258;59.424;13.482;2023-08-01T07:48:56;18.40;99.90
46217;DHT22;47258;59.424;13.482;2023-08-01T07:51:23;18.40;99.90
46217;DHT22;47258;59.424;13.482;2023-08-01T07:53:51;18.50;99.90
46217;DHT22;47258;59.424;13.482;2023-08-01T07:56:20;18.70;99.90
46217;DHT22;47258;59.424;13.482;2023-08-01T07:58:47;18.80;99.90
46217;DHT22;47258;59.424;13.482;2023-08-01T08:01:14;18.90;99.90
46217;DHT22;47258;59.424;13.482;2023-08-01T08:03:41;19.00;99.90
46217;DHT22;47258;59.424;13.482;2023-08-01T08:06:08;19.10;99.90
46217;DHT22;47258;59.424;13.482;2023-08-01T08:08:35;19.20;99.90
46217;DHT22;47258;59.424;13.482;2023-08-01T08:11:03;19.30;99.90
46217;DHT22;47258;59.424;13.482;2023-08-01T08:13:31;19.40;99.90
46217;DHT22;47258;59.424;13.482;2023-08-01T08:15:58;19.30;99.90
46217;DHT22;47258;59.424;13.482;2023-08-01T08:18:26;19.40;99.90
46217;DHT22;47258;59.424;13.482;2023-08-01T08:20:53;19.50;99.90
46217;DHT22;47258;59.424;13.482;2023-08-01T08:23:20;19.40;99.90
46217;DHT22;47258;59.424;13.482;2023-08-01T08:25:47;19.50;99.90
46217;DHT22;47258;59.424;13.482;2023-08-01T08:28:16;19.50;99.90
46217;DHT22;47258;59.424;13.482;2023-08-01T08:30:44;19.60;99.90
46217;DHT22;47258;59.424;13.482;2023-08-01T08:33:19;19.70;99.90
46217;DHT22;47258;59.424;13.482;2023-08-01T08:35:46;19.70;99.90
46217;DHT22;47258;59.424;13.482;2023-08-01T08:38:13;19.70;99.90
46217;DHT22;47258;59.424;13.482;2023-08-01T08:40:46;19.70;99.90
46217;DHT22;47258;59.424;13.482;2023-08-01T08:43:15;19.70;99.90
46217;DHT22;47258;59.424;13.482;2023-08-01T08:45:46;19.70;99.90
46217;DHT22;47258;59.424;13.482;2023-08-01T08:48:18;19.70;99.90
46217;DHT22;47258;59.424;13.482;2023-08-01T08:50:46;19.80;99.90
46217;DHT22;47258;59.424;13.482;2023-08-01T08:53:14;19.80;99.90
46217;DHT22;47258;59.424;13.482;2023-08-01T08:55:41;19.90;99.90
46217;DHT22;47258;59.424;13.482;2023-08-01T08:58:09;20.00;99.90
46217;DHT22;47258;59.424;13.482;2023-08-01T09:00:36;20.00;99.90
46217;DHT22;47258;59.424;13.482;2023-08-01T09:03:05;20.00;99.90
46217;DHT22;47258;59.424;13.482;2023-08-01T09:22:55;21.00;99.90
46217;DHT22;47258;59.424;13.482;2023-08-01T09:25:31;21.00;99.90
46217;DHT22;47258;59.424;13.482;2023-08-01T09:27:59;21.00;99.90
46217;DHT22;47258;59.424;13.482;2023-08-01T09:30:26;21.10;99.90
46217;DHT22;47258;59.424;13.482;2023-08-01T09:32:53;21.20;99.90
46217;DHT22;47258;59.424;13.482;2023-08-01T09:35:21;21.30;99.90
46217;DHT22;47258;59.424;13.482;2023-08-01T09:37:49;21.40;99.90
46217;DHT22;47258;59.424;13.482;2023-08-01T09:40:16;21.50;99.90
46217;DHT22;47258;59.424;13.482;2023-08-01T09:42:44;21.40;99.90
46217;DHT22;47258;59.424;13.482;2023-08-01T09:45:12;21.40;99.90
46217;DHT22;47258;59.424;13.482;2023-08-01T09:47:40;21.60;99.90
46217;DHT22;47258;59.424;13.482;2023-08-01T09:50:09;21.80;99.90
46217;DHT22;47258;59.424;13.482;2023-08-01T09:52:37;22.00;99.90
46217;DHT22;47258;59.424;13.482;2023-08-01T09:55:06;22.20;99.90
46217;DHT22;47258;59.424;13.482;2023-08-01T09:57:35;22.20;99.90
46217;DHT22;47258;59.424;13.482;2023-08-01T10:00:04;22.40;99.90
46217;DHT22;47258;59.424;13.482;2023-08-01T10:02:32;22.60;99.90
46217;DHT22;47258;59.424;13.482;2023-08-01T10:05:00;22.60;99.90
46217;DHT22;47258;59.424;13.482;2023-08-01T10:07:29;22.60;99.90
46217;DHT22;47258;59.424;13.482;2023-08-01T10:09:58;22.80;99.90
46217;DHT22;47258;59.424;13.482;2023-08-01T10:12:27;22.90;99.90
46217;DHT22;47258;59.424;13.482;2023-08-01T10:14:55;23.20;99.90
46217;DHT22;47258;59.424;13.482;2023-08-01T10:17:24;23.40;99.90
46217;DHT22;47258;59.424;13.482;2023-08-01T10:19:52;23.40;99.90
46217;DHT22;47258;59.424;13.482;2023-08-01T10:22:22;23.70;99.90
46217;DHT22;47258;59.424;13.482;2023-08-01T10:24:49;23.70;99.90
46217;DHT22;47258;59.424;13.482;2023-08-01T10:27:20;23.70;99.90
46217;DHT22;47258;59.424;13.482;2023-08-01T10:29:57;23.70;99.90
46217;DHT22;47258;59.424;13.482;2023-08-01T10:32:31;23.90;99.90
46217;DHT22;47258;59.424;13.482;2023-08-01T10:34:59;24.00;99.90
46217;DHT22;47258;59.424;13.482;2023-08-01T10:37:26;24.10;99.90
46217;DHT22;47258;59.424;13.482;2023-08-01T10:39:57;24.30;99.90
46217;DHT22;47258;59.424;13.482;2023-08-01T10:42:24;24.40;99.90
46217;DHT22;47258;59.424;13.482;2023-08-01T10:44:51;24.60;99.90
46217;DHT22;47258;59.424;13.482;2023-08-01T10:47:27;24.50;99.90
46217;DHT22;47258;59.424;13.482;2023-08-01T10:49:54;24.60;99.90
46217;DHT22;47258;59.424;13.482;2023-08-01T10:52:23;24.70;99.90
46217;DHT22;47258;59.424;13.482;2023-08-01T10:54:57;24.70;99.90
46217;DHT22;47258;59.424;13.482;2023-08-01T10:57:26;24.80;99.90
46217;DHT22;47258;59.424;13.482;2023-08-01T10:59:55;24.80;99.90
46217;DHT22;47258;59.424;13.482;2023-08-01T11:02:24;24.90;99.90
46217;DHT22;47258;59.424;13.482;2023-08-01T11:04:59;25.00;99.90
46217;DHT22;47258;59.424;13.482;2023-08-01T11:07:27;24.90;99.90
46217;DHT22;47258;59.424;13.482;2023-08-01T11:10:05;24.90;99.90
46217;DHT22;47258;59.424;13.482;2023-08-01T11:12:34;24.80;99.90
46217;DHT22;47258;59.424;13.482;2023-08-01T11:15:02;24.80;99.90
46217;DHT22;47258;59.424;13.482;2023-08-01T11:17:31;24.70;99.90
46217;DHT22;47258;59.424;13.482;2023-08-01T11:20:03;24.70;99.90
46217;DHT22;47258;59.424;13.482;2023-08-01T11:22:31;24.60;99.90
46217;DHT22;47258;59.424;13.482;2023-08-01T11:24:58;24.70;99.90
46217;DHT22;47258;59.424;13.482;2023-08-01T11:27:25;24.80;99.90
46217;DHT22;47258;59.424;13.482;2023-08-01T11:29:53;24.90;99.90
46217;DHT22;47258;59.424;13.482;2023-08-01T11:32:20;24.80;99.90
46217;DHT22;47258;59.424;13.482;2023-08-01T11:34:48;24.70;99.90
46217;DHT22;47258;59.424;13.482;2023-08-01T11:37:18;24.60;99.90
46217;DHT22;47258;59.424;13.482;2023-08-01T11:39:46;24.50;99.90
46217;DHT22;47258;59.424;13.482;2023-08-01T11:42:15;24.50;99.90
46217;DHT22;47258;59.424;13.482;2023-08-01T11:44:43;24.70;99.90
46217;DHT22;47258;59.424;13.482;2023-08-01T11:47:11;24.80;99.90
46217;DHT22;47258;59.424;13.482;2023-08-01T11:49:44;24.70;99.90
46217;DHT22;47258;59.424;13.482;2023-08-01T11:52:24;24.70;99.90
46217;DHT22;47258;59.424;13.482;2023-08-01T11:54:51;24.50;99.90
46217;DHT22;47258;59.424;13.482;2023-08-01T11:57:20;24.40;99.90
46217;DHT22;47258;59.424;13.482;2023-08-01T11:59:47;24.30;99.90
46217;DHT22;47258;59.424;13.482;2023-08-01T12:02:22;24.10;99.90
46217;DHT22;47258;59.424;13.482;2023-08-01T12:04:50;23.80;99.90
46217;DHT22;47258;59.424;13.482;2023-08-01T12:07:18;23.70;99.90
46217;DHT22;47258;59.424;13.482;2023-08-01T12:09:55;23.60;99.90
46217;DHT22;47258;59.424;13.482;2023-08-01T12:12:22;23.50;99.90
46217;DHT22;47258;59.424;13.482;2023-08-01T12:14:49;23.40;99.90
46217;DHT22;47258;59.424;13.482;2023-08-01T12:17:16;23.30;99.90
46217;DHT22;47258;59.424;13.482;2023-08-01T12:19:43;23.30;99.90
46217;DHT22;47258;59.424;13.482;2023-08-01T12:22:11;23.20;99.90
46217;DHT22;47258;59.424;13.482;2023-08-01T12:24:38;23.20;99.90
46217;DHT22;47258;59.424;13.482;2023-08-01T12:27:07;23.00;99.90
46217;DHT22;47258;59.424;13.482;2023-08-01T12:29:35;23.00;99.90
46217;DHT22;47258;59.424;13.482;2023-08-01T12:32:03;22.80;99.90
46217;DHT22;47258;59.424;13.482;2023-08-01T12:34:30;22.80;99.90
46217;DHT22;47258;59.424;13.482;2023-08-01T12:36:57;22.70;99.90
46217;DHT22;47258;59.424;13.482;2023-08-01T12:39:24;22.60;99.90
46217;DHT22;47258;59.424;13.482;2023-08-01T12:41:51;22.60;99.90
46217;DHT22;47258;59.424;13.482;2023-08-01T12:44:21;22.40;99.90
46217;DHT22;47258;59.424;13.482;2023-08-01T12:46:48;22.30;99.90
46217;DHT22;47258;59.424;13.482;2023-08-01T12:49:15;22.40;99.90
46217;DHT22;47258;59.424;13.482;2023-08-01T12:51:42;22.40;99.90
46217;DHT22;47258;59.424;13.482;2023-08-01T12:54:09;22.40;99.90
46217;DHT22;47258;59.424;13.482;2023-08-01T12:56:36;22.40;99.90
46217;DHT22;47258;59.424;13.482;2023-08-01T12:59:04;22.40;99.90
46217;DHT22;47258;59.424;13.482;2023-08-01T13:01:32;22.50;99.90
46217;DHT22;47258;59.424;13.482;2023-08-01T13:03:59;22.50;99.90
46217;DHT22;47258;59.424;13.482;2023-08-01T13:06:26;22.50;99.90
46217;DHT22;47258;59.424;13.482;2023-08-01T13:08:53;22.60;99.90
46217;DHT22;47258;59.424;13.482;2023-08-01T13:11:20;22.70;99.90
46217;DHT22;47258;59.424;13.482;2023-08-01T13:13:47;22.70;99.90
46217;DHT22;47258;59.424;13.482;2023-08-01T13:16:14;22.90;99.90
46217;DHT22;47258;59.424;13.482;2023-08-01T13:18:43;23.10;99.90
46217;DHT22;47258;59.424;13.482;2023-08-01T13:21:12;23.10;99.90
46217;DHT22;47258;59.424;13.482;2023-08-01T13:23:39;23.10;99.90
46217;DHT22;47258;59.424;13.482;2023-08-01T13:26:06;22.90;99.90
46217;DHT22;47258;59.424;13.482;2023-08-01T13:28:33;22.90;99.90
46217;DHT22;47258;59.424;13.482;2023-08-01T13:31:00;22.90;99.90
46217;DHT22;47258;59.424;13.482;2023-08-01T13:33:27;23.00;99.90
46217;DHT22;47258;59.424;13.482;2023-08-01T13:35:56;23.00;99.90
46217;DHT22;47258;59.424;13.482;2023-08-01T13:38:24;23.20;99.90
46217;DHT22;47258;59.424;13.482;2023-08-01T13:40:51;23.40;99.90
46217;DHT22;47258;59.424;13.482;2023-08-01T13:43:18;23.30;99.90
46217;DHT22;47258;59.424;13.482;2023-08-01T13:45:45;23.30;99.90
46217;DHT22;47258;59.424;13.482;2023-08-01T13:48:12;23.20;99.90
46217;DHT22;47258;59.424;13.482;2023-08-01T13:50:40;23.30;99.90
46217;DHT22;47258;59.424;13.482;2023-08-01T13:53:08;23.20;99.90
46217;DHT22;47258;59.424;13.482;2023-08-01T13:55:37;23.30;99.90
46217;DHT22;47258;59.424;13.482;2023-08-01T13:58:04;23.60;99.90
46217;DHT22;47258;59.424;13.482;2023-08-01T14:00:31;23.70;99.90
46217;DHT22;47258;59.424;13.482;2023-08-01T14:02:59;24.00;99.90
46217;DHT22;47258;59.424;13.482;2023-08-01T14:05:26;24.30;99.90
46217;DHT22;47258;59.424;13.482;2023-08-01T14:07:53;24.50;99.90
46217;DHT22;47258;59.424;13.482;2023-08-01T14:10:23;24.60;99.90
46217;DHT22;47258;59.424;13.482;2023-08-01T14:12:50;24.60;99.90
46217;DHT22;47258;59.424;13.482;2023-08-01T14:15:17;24.50;99.90
46217;DHT22;47258;59.424;13.482;2023-08-01T14:17:44;24.40;99.90
46217;DHT22;47258;59.424;13.482;2023-08-01T14:20:12;24.20;99.90
46217;DHT22;47258;59.424;13.482;2023-08-01T14:22:41;24.20;99.90
46217;DHT22;47258;59.424;13.482;2023-08-01T14:25:09;24.40;99.90
46217;DHT22;47258;59.424;13.482;2023-08-01T14:27:37;24.40;99.90
46217;DHT22;47258;59.424;13.482;2023-08-01T14:30:06;24.40;99.90
46217;DHT22;47258;59.424;13.482;2023-08-01T14:32:36;24.50;99.90
46217;DHT22;47258;59.424;13.482;2023-08-01T14:35:04;24.50;99.90
46217;DHT22;47258;59.424;13.482;2023-08-01T14:37:31;24.30;99.90
46217;DHT22;47258;59.424;13.482;2023-08-01T14:39:58;24.20;99.90
46217;DHT22;47258;59.424;13.482;2023-08-01T14:42:25;24.20;99.90
46217;DHT22;47258;59.424;13.482;2023-08-01T14:44:53;24.10;99.90
46217;DHT22;47258;59.424;13.482;2023-08-01T14:47:21;24.00;99.90
46217;DHT22;47258;59.424;13.482;2023-08-01T14:49:48;24.00;99.90
46217;DHT22;47258;59.424;13.482;2023-08-01T14:52:15;23.90;99.90
46217;DHT22;47258;59.424;13.482;2023-08-01T14:54:42;23.90;99.90
46217;DHT22;47258;59.424;13.482;2023-08-01T14:57:09;24.00;99.90
46217;DHT22;47258;59.424;13.482;2023-08-01T14:59:36;24.00;99.90
46217;DHT22;47258;59.424;13.482;2023-08-01T15:02:07;24.00;99.90
46217;DHT22;47258;59.424;13.482;2023-08-01T15:04:34;24.10;99.90
46217;DHT22;47258;59.424;13.482;2023-08-01T15:07:01;24.30;99.90
46217;DHT22;47258;59.424;13.482;2023-08-01T15:09:29;24.50;99.90
46217;DHT22;47258;59.424;13.482;2023-08-01T15:11:56;24.70;99.90
46217;DHT22;47258;59.424;13.482;2023-08-01T15:14:23;25.00;99.90
46217;DHT22;47258;59.424;13.482;2023-08-01T15:16:50;25.00;99.90
46217;DHT22;47258;59.424;13.482;2023-08-01T15:19:19;25.20;99.90
46217;DHT22;47258;59.424;13.482;2023-08-01T15:21:46;25.10;99.90
46217;DHT22;47258;59.424;13.482;2023-08-01T15:24:13;25.00;99.90
46217;DHT22;47258;59.424;13.482;2023-08-01T15:26:40;24.90;99.90
46217;DHT22;47258;59.424;13.482;2023-08-01T15:29:07;24.70;99.90
46217;DHT22;47258;59.424;13.482;2023-08-01T15:31:35;24.50;99.90
46217;DHT22;47258;59.424;13.482;2023-08-01T15:34:02;24.40;99.90
46217;DHT22;47258;59.424;13.482;2023-08-01T15:36:31;24.40;99.90
46217;DHT22;47258;59.424;13.482;2023-08-01T15:38:58;24.20;99.90
46217;DHT22;47258;59.424;13.482;2023-08-01T15:41:25;24.30;99.90
46217;DHT22;47258;59.424;13.482;2023-08-01T15:43:52;24.20;99.90
46217;DHT22;47258;59.424;13.482;2023-08-01T15:46:19;24.10;99.90
46217;DHT22;47258;59.424;13.482;2023-08-01T15:48:46;24.10;99.90
46217;DHT22;47258;59.424;13.482;2023-08-01T15:51:14;24.00;99.90
46217;DHT22;47258;59.424;13.482;2023-08-01T15:53:43;23.90;99.90
46217;DHT22;47258;59.424;13.482;2023-08-01T15:56:10;23.90;99.90
46217;DHT22;47258;59.424;13.482;2023-08-01T15:58:37;23.80;99.90
46217;DHT22;47258;59.424;13.482;2023-08-01T16:01:04;23.80;99.90
46217;DHT22;47258;59.424;13.482;2023-08-01T16:03:35;23.70;99.90
46217;DHT22;47258;59.424;13.482;2023-08-01T16:06:02;23.80;99.90
46217;DHT22;47258;59.424;13.482;2023-08-01T16:08:29;23.80;99.90
46217;DHT22;47258;59.424;13.482;2023-08-01T16:10:58;23.70;99.90
46217;DHT22;47258;59.424;13.482;2023-08-01T16:13:25;23.60;99.90
46217;DHT22;47258;59.424;13.482;2023-08-01T16:15:52;23.60;99.90
46217;DHT22;47258;59.424;13.482;2023-08-01T16:18:19;23.60;99.90
46217;DHT22;47258;59.424;13.482;2023-08-01T16:20:46;23.60;99.90
46217;DHT22;47258;59.424;13.482;2023-08-01T16:23:14;23.70;99.90
46217;DHT22;47258;59.424;13.482;2023-08-01T16:25:41;23.60;99.90
46217;DHT22;47258;59.424;13.482;2023-08-01T16:28:10;23.60;99.90
46217;DHT22;47258;59.424;13.482;2023-08-01T16:30:37;23.60;99.90
46217;DHT22;47258;59.424;13.482;2023-08-01T16:33:04;23.60;99.90
46217;DHT22;47258;59.424;13.482;2023-08-01T16:35:31;23.60;99.90
46217;DHT22;47258;59.424;13.482;2023-08-01T16:37:59;23.40;99.90
46217;DHT22;47258;59.424;13.482;2023-08-01T16:40:26;23.30;99.90
46217;DHT22;47258;59.424;13.482;2023-08-01T16:42:53;23.10;99.90
46217;DHT22;47258;59.424;13.482;2023-08-01T16:45:22;23.00;99.90
46217;DHT22;47258;59.424;13.482;2023-08-01T16:47:49;22.90;99.90
46217;DHT22;47258;59.424;13.482;2023-08-01T16:50:18;23.00;99.90
46217;DHT22;47258;59.424;13.482;2023-08-01T16:52:45;23.10;99.90
46217;DHT22;47258;59.424;13.482;2023-08-01T16:55:13;23.10;99.90
46217;DHT22;47258;59.424;13.482;2023-08-01T16:57:40;23.20;99.90
46217;DHT22;47258;59.424;13.482;2023-08-01T17:00:09;23.30;99.90
46217;DHT22;47258;59.424;13.482;2023-08-01T17:02:38;23.30;99.90
46217;DHT22;47258;59.424;13.482;2023-08-01T17:05:06;23.40;99.90
46217;DHT22;47258;59.424;13.482;2023-08-01T17:07:33;23.40;99.90
46217;DHT22;47258;59.424;13.482;2023-08-01T17:10:02;23.30;99.90
46217;DHT22;47258;59.424;13.482;2023-08-01T17:12:30;23.40;99.90
46217;DHT22;47258;59.424;13.482;2023-08-01T17:14:57;23.30;99.90
46217;DHT22;47258;59.424;13.482;2023-08-01T17:17:25;23.20;99.90
46217;DHT22;47258;59.424;13.482;2023-08-01T17:19:54;23.10;99.90
46217;DHT22;47258;59.424;13.482;2023-08-01T17:27:32;22.60;99.90
46217;DHT22;47258;59.424;13.482;2023-08-01T17:30:01;22.50;99.90
46217;DHT22;47258;59.424;13.482;2023-08-01T17:32:28;22.40;99.90
46217;DHT22;47258;59.424;13.482;2023-08-01T17:34:57;22.30;99.90
46217;DHT22;47258;59.424;13.482;2023-08-01T17:37:24;22.20;99.90
46217;DHT22;47258;59.424;13.482;2023-08-01T17:39:51;22.10;99.90
46217;DHT22;47258;59.424;13.482;2023-08-01T17:42:18;22.10;99.90
46217;DHT22;47258;59.424;13.482;2023-08-01T17:44:45;22.10;99.90
46217;DHT22;47258;59.424;13.482;2023-08-01T17:47:12;22.00;99.90
46217;DHT22;47258;59.424;13.482;2023-08-01T17:49:39;22.00;99.90
46217;DHT22;47258;59.424;13.482;2023-08-01T17:52:08;21.90;99.90
46217;DHT22;47258;59.424;13.482;2023-08-01T17:54:35;21.90;99.90
46217;DHT22;47258;59.424;13.482;2023-08-01T17:57:03;21.80;99.90
46217;DHT22;47258;59.424;13.482;2023-08-01T17:59:30;21.80;99.90
46217;DHT22;47258;59.424;13.482;2023-08-01T18:01:58;21.80;99.90
46217;DHT22;47258;59.424;13.482;2023-08-01T18:04:25;21.70;99.90
46217;DHT22;47258;59.424;13.482;2023-08-01T18:06:52;21.70;99.90
46217;DHT22;47258;59.424;13.482;2023-08-01T18:09:21;21.70;99.90